Time;durP1;ratioP1;P1;durP2;ratioP2;P2;SDS_P1;SDS_P2;PMS_P1;PMS_P2;Temp;Humidity;BMP_temperature;BMP_pressure;BME280_temperature;BME280_humidity;BME280_pressure;Samples;Min_cycle;Max_cycle;Signal;HPM_P1;HPM_P2
2022/09/02 01:00:07;;;;;;;2.42;1.23;;;20.10;59.20;;;;;;5052333;28;20511;-72
2022/09/02 01:02:34;;;;;;;1.45;1.10;;;20.20;59.30;;;;;;5053353;28;20088;-71
2022/09/02 01:05:02;;;;;;;1.48;1.20;;;20.00;61.30;;;;;;5053501;28;20099;-71
2022/09/02 01:07:32;;;;;;;2.53;1.13;;;20.20;59.20;;;;;;5053876;28;20049;-70
2022/09/02 01:09:59;;;;;;;1.45;1.30;;;20.10;59.10;;;;;;5054864;28;20065;-71
2022/09/02 01:12:26;;;;;;;2.13;0.98;;;20.10;59.10;;;;;;5053961;28;20508;-71
2022/09/02 01:14:53;;;;;;;2.05;1.00;;;20.10;59.10;;;;;;5054110;28;20087;-70
2022/09/02 01:17:21;;;;;;;1.15;1.05;;;20.20;59.20;;;;;;5054081;28;20045;-72
2022/09/02 01:19:49;;;;;;;1.10;1.00;;;20.10;59.10;;;;;;5055163;28;20413;-72
2022/09/02 01:22:18;;;;;;;1.80;1.10;;;20.10;59.00;;;;;;5053048;28;20077;-70
2022/09/02 01:24:45;;;;;;;1.10;1.00;;;20.10;59.00;;;;;;5053269;28;20061;-70
2022/09/02 01:27:15;;;;;;;1.10;1.00;;;20.10;59.00;;;;;;5055025;28;20437;-72
2022/09/02 01:29:42;;;;;;;1.10;1.00;;;20.10;59.10;;;;;;5054911;28;20048;-70
2022/09/02 01:32:08;;;;;;;2.10;1.20;;;20.10;59.00;;;;;;5053429;28;20381;-71
2022/09/02 01:34:35;;;;;;;1.10;1.00;;;20.10;59.00;;;;;;5054744;28;20153;-71
2022/09/02 01:37:02;;;;;;;1.27;1.05;;;20.10;59.00;;;;;;5053572;28;20060;-71
2022/09/02 01:39:30;;;;;;;1.20;1.10;;;20.10;59.00;;;;;;5053691;28;20558;-71
2022/09/02 01:41:56;;;;;;;1.60;1.25;;;20.10;59.10;;;;;;5054233;28;20064;-72
2022/09/02 01:44:26;;;;;;;1.80;1.10;;;20.10;59.00;;;;;;5053529;28;20537;-71
2022/09/02 01:46:53;;;;;;;1.27;1.00;;;20.10;59.10;;;;;;5054407;28;20416;-71
2022/09/02 01:49:20;;;;;;;1.75;1.15;;;20.10;59.10;;;;;;5053271;28;20049;-70
2022/09/02 01:51:46;;;;;;;1.20;1.00;;;20.10;61.30;;;;;;5053102;28;20135;-70
2022/09/02 01:54:13;;;;;;;1.25;1.10;;;20.10;59.00;;;;;;5053088;28;20059;-71
2022/09/02 01:56:41;;;;;;;1.52;1.00;;;20.10;59.00;;;;;;5054461;28;20041;-71
2022/09/02 01:59:10;;;;;;;1.25;1.10;;;20.10;59.00;;;;;;5053125;28;20049;-71
2022/09/02 02:01:37;;;;;;;1.60;1.10;;;20.10;59.00;;;;;;5052170;28;20061;-70
2022/09/02 02:04:03;;;;;;;1.40;1.10;;;20.00;59.00;;;;;;5051997;28;20087;-71
2022/09/02 02:06:30;;;;;;;2.58;1.15;;;20.00;59.00;;;;;;5053160;28;20498;-70
2022/09/02 02:08:57;;;;;;;1.17;1.08;;;20.00;59.00;;;;;;5052651;28;20079;-70
2022/09/02 02:11:24;;;;;;;1.23;1.10;;;20.00;59.00;;;;;;5052642;28;20063;-71
2022/09/02 02:13:52;;;;;;;1.25;1.00;;;20.00;58.90;;;;;;5053046;28;20140;-70
2022/09/02 02:16:19;;;;;;;1.10;1.00;;;20.00;59.00;;;;;;5052694;28;20132;-70
2022/09/02 02:18:46;;;;;;;1.48;1.10;;;20.00;61.10;;;;;;5052601;28;20045;-71
2022/09/02 02:21:13;;;;;;;1.30;0.80;;;20.00;59.00;;;;;;5053558;28;20051;-71
2022/09/02 02:23:39;;;;;;;1.10;1.00;;;20.00;59.00;;;;;;5052546;28;20135;-71
2022/09/02 02:26:07;;;;;;;1.98;1.08;;;20.00;59.00;;;;;;5052767;28;20056;-71
2022/09/02 02:28:33;;;;;;;1.38;1.10;;;20.00;59.00;;;;;;5052575;28;20052;-70
2022/09/02 02:31:01;;;;;;;1.33;1.00;;;19.90;61.80;;;;;;5053137;28;20084;-70
2022/09/02 02:33:28;;;;;;;1.40;1.10;;;20.00;59.00;;;;;;5052680;28;20506;-70
2022/09/02 02:35:55;;;;;;;1.20;0.95;;;20.00;61.40;;;;;;5052627;28;20048;-70
2022/09/02 02:38:22;;;;;;;1.17;1.00;;;20.00;59.00;;;;;;5052366;28;20107;-69
2022/09/02 02:40:49;;;;;;;1.23;0.98;;;20.00;59.00;;;;;;5053173;28;20432;-70
2022/09/02 02:43:15;;;;;;;1.20;1.00;;;20.00;59.60;;;;;;5052227;28;20049;-70
2022/09/02 02:45:42;;;;;;;2.90;1.10;;;19.90;58.90;;;;;;5035732;28;20087;-72
2022/09/02 02:48:12;;;;;;;0.90;0.90;;;19.90;58.90;;;;;;5052165;28;20072;-70
2022/09/02 02:50:38;;;;;;;1.85;1.00;;;20.00;59.00;;;;;;5051712;28;20057;-71
2022/09/02 02:53:05;;;;;;;3.10;1.00;;;19.90;59.00;;;;;;5052022;28;20541;-71
2022/09/02 02:55:32;;;;;;;1.08;0.98;;;19.90;59.00;;;;;;5052032;28;20059;-71
2022/09/02 02:57:58;;;;;;;2.00;1.08;;;19.90;58.90;;;;;;5053264;28;20140;-71
2022/09/02 03:00:27;;;;;;;1.90;1.10;;;20.10;59.10;;;;;;5051664;28;20079;-71
2022/09/02 03:02:55;;;;;;;3.08;1.10;;;19.90;58.90;;;;;;5052075;28;20057;-71
2022/09/02 03:05:23;;;;;;;0.93;0.90;;;19.90;58.90;;;;;;5051885;28;20063;-70
2022/09/02 03:07:50;;;;;;;1.10;1.00;;;19.90;58.90;;;;;;5051941;28;20060;-70
2022/09/02 03:10:17;;;;;;;1.00;0.90;;;19.80;58.90;;;;;;5051562;28;20401;-72
2022/09/02 03:12:46;;;;;;;1.10;1.00;;;19.90;58.90;;;;;;5051828;28;20063;-71
2022/09/02 03:15:15;;;;;;;1.00;0.90;;;19.90;58.90;;;;;;5052254;28;20044;-70
2022/09/02 03:17:42;;;;;;;1.02;0.95;;;19.90;58.90;;;;;;5051697;28;20086;-70
2022/09/02 03:20:09;;;;;;;1.15;1.05;;;19.80;58.90;;;;;;5051089;28;20395;-71
2022/09/02 03:22:38;;;;;;;1.85;1.00;;;19.80;58.90;;;;;;5051695;28;20500;-71
2022/09/02 03:25:06;;;;;;;2.92;1.00;;;19.80;58.90;;;;;;5052623;28;20435;-72
2022/09/02 03:27:33;;;;;;;1.02;0.93;;;19.80;58.90;;;;;;5051477;28;20135;-70
2022/09/02 03:30:00;;;;;;;1.10;1.00;;;19.80;58.90;;;;;;5050834;28;20036;-71
2022/09/02 03:32:27;;;;;;;1.10;1.00;;;19.80;58.90;;;;;;5051099;28;20048;-70
2022/09/02 03:34:54;;;;;;;2.00;1.00;;;19.80;58.80;;;;;;5051516;28;20053;-71
2022/09/02 03:37:20;;;;;;;1.20;1.10;;;19.80;58.90;;;;;;5051189;28;20405;-70
2022/09/02 03:39:49;;;;;;;1.02;0.93;;;19.70;61.50;;;;;;5052253;28;20053;-70
2022/09/02 03:42:15;;;;;;;1.17;1.08;;;19.80;58.90;;;;;;5052350;28;20049;-70
2022/09/02 03:44:42;;;;;;;1.27;0.80;;;19.80;58.90;;;;;;5051286;28;20132;-72
2022/09/02 03:47:09;;;;;;;1.15;0.98;;;19.80;58.80;;;;;;5051084;28;20078;-70
2022/09/02 03:49:35;;;;;;;1.10;0.90;;;19.80;58.80;;;;;;5050755;28;20049;-72
2022/09/02 03:52:02;;;;;;;1.15;0.93;;;19.40;61.10;;;;;;5052024;28;20053;-72
2022/09/02 03:54:29;;;;;;;3.28;1.20;;;19.50;59.50;;;;;;5051154;28;20669;-71
2022/09/02 03:56:57;;;;;;;1.85;1.00;;;19.90;61.30;;;;;;5050948;28;20076;-70
2022/09/02 03:59:24;;;;;;;1.17;1.00;;;19.80;61.20;;;;;;5051129;28;20124;-70
2022/09/02 04:01:51;;;;;;;1.20;1.10;;;19.70;58.80;;;;;;5050553;28;20061;-71
2022/09/02 04:04:18;;;;;;;1.27;0.98;;;19.80;58.80;;;;;;5050980;28;20482;-71
2022/09/02 04:06:45;;;;;;;1.08;0.95;;;19.70;58.80;;;;;;5050594;28;20052;-71
2022/09/02 04:09:12;;;;;;;2.55;1.08;;;19.80;58.90;;;;;;5050556;28;20053;-70
2022/09/02 04:11:41;;;;;;;1.10;0.88;;;19.70;58.80;;;;;;5050284;28;20145;-70
2022/09/02 04:14:09;;;;;;;1.50;1.02;;;19.70;58.80;;;;;;5049744;28;20095;-70
2022/09/02 04:16:36;;;;;;;0.88;0.80;;;19.70;58.80;;;;;;5050601;28;20064;-74
2022/09/02 04:19:03;;;;;;;1.35;1.05;;;19.70;58.80;;;;;;5050524;28;20060;-72
2022/09/02 04:21:31;;;;;;;0.73;0.73;;;19.70;58.80;;;;;;5051340;28;20041;-74
2022/09/02 04:23:58;;;;;;;1.13;0.88;;;19.70;58.80;;;;;;5050467;28;20053;-74
2022/09/02 04:26:25;;;;;;;0.80;0.80;;;19.70;58.80;;;;;;5049963;28;20053;-73
2022/09/02 04:28:52;;;;;;;1.05;0.95;;;19.70;61.70;;;;;;5050509;28;20132;-74
2022/09/02 04:31:21;;;;;;;1.20;1.02;;;19.70;58.80;;;;;;5049816;28;20064;-72
2022/09/02 04:33:47;;;;;;;1.35;1.13;;;19.70;58.80;;;;;;5050460;28;20055;-73
2022/09/02 04:36:15;;;;;;;1.30;1.00;;;19.70;58.80;;;;;;5051568;28;20052;-74
2022/09/02 04:38:42;;;;;;;1.35;0.80;;;19.70;58.80;;;;;;5050089;28;20128;-74
2022/09/02 04:41:09;;;;;;;3.50;0.95;;;19.70;58.80;;;;;;5050602;28;20123;-74
2022/09/02 04:43:36;;;;;;;1.73;1.15;;;19.60;58.80;;;;;;5050679;28;20152;-73
2022/09/02 04:46:04;;;;;;;1.63;1.00;;;19.70;58.80;;;;;;5050577;28;20092;-74
2022/09/02 04:48:32;;;;;;;1.02;0.90;;;19.70;58.80;;;;;;5050460;28;20056;-74
2022/09/02 04:51:03;;;;;;;1.15;1.00;;;19.60;58.80;;;;;;5050312;28;20063;-74
2022/09/02 04:53:29;;;;;;;0.93;0.90;;;19.70;62.10;;;;;;5050543;28;20055;-75
2022/09/02 04:55:56;;;;;;;1.67;1.10;;;19.60;59.10;;;;;;5050506;28;20406;-74
2022/09/02 04:58:23;;;;;;;1.30;1.05;;;19.60;59.10;;;;;;5050348;28;20055;-74
2022/09/02 05:00:49;;;;;;;1.67;1.00;;;19.60;59.20;;;;;;5049856;28;20057;-74
2022/09/02 05:03:18;;;;;;;1.10;0.82;;;19.60;59.20;;;;;;5050520;28;20387;-72
2022/09/02 05:05:47;;;;;;;1.00;0.90;;;19.60;59.30;;;;;;5049932;28;20053;-74
2022/09/02 05:08:15;;;;;;;1.10;1.00;;;19.60;59.30;;;;;;5051157;28;20041;-74
2022/09/02 05:10:41;;;;;;;1.30;1.20;;;19.60;59.40;;;;;;5049334;28;20053;-74
2022/09/02 05:13:08;;;;;;;1.45;1.10;;;19.60;59.40;;;;;;5049378;28;20132;-74
2022/09/02 05:15:39;;;;;;;2.05;1.10;;;19.70;59.50;;;;;;5048397;28;20060;-74
2022/09/02 05:18:06;;;;;;;2.15;1.30;;;19.60;59.40;;;;;;5046107;28;20072;-71
2022/09/02 05:20:32;;;;;;;1.55;1.05;;;19.60;59.50;;;;;;5049500;28;20045;-71
2022/09/02 05:23:01;;;;;;;1.17;0.98;;;19.60;59.50;;;;;;5049931;28;20428;-71
2022/09/02 05:25:27;;;;;;;1.10;1.00;;;19.60;59.50;;;;;;5049575;28;20063;-71
2022/09/02 05:27:54;;;;;;;2.38;1.20;;;19.60;59.50;;;;;;5049501;28;20157;-71
2022/09/02 05:30:21;;;;;;;1.38;1.10;;;19.60;59.60;;;;;;5048926;28;20049;-72
2022/09/02 05:32:48;;;;;;;1.63;1.10;;;19.60;59.60;;;;;;5047216;28;20405;-71
2022/09/02 05:35:15;;;;;;;1.00;0.90;;;19.60;59.70;;;;;;5049700;28;20056;-72
2022/09/02 05:37:42;;;;;;;1.20;1.00;;;19.60;59.70;;;;;;5050739;28;20053;-71
2022/09/02 05:40:11;;;;;;;3.00;1.10;;;19.50;59.70;;;;;;5052988;28;20055;-71
2022/09/02 05:42:38;;;;;;;2.50;1.20;;;19.60;59.70;;;;;;5054875;28;20491;-71
2022/09/02 05:45:06;;;;;;;1.83;1.20;;;19.50;59.50;;;;;;5053697;28;20494;-71
2022/09/02 05:47:33;;;;;;;4.50;1.02;;;19.50;59.40;;;;;;5053362;28;20132;-71
2022/09/02 05:50:00;;;;;;;1.27;1.00;;;19.70;59.50;;;;;;5052920;28;20051;-71
2022/09/02 05:52:27;;;;;;;3.60;1.15;;;19.60;59.50;;;;;;5053432;28;20057;-71
2022/09/02 05:54:54;;;;;;;2.15;1.25;;;19.60;59.70;;;;;;5053512;28;20063;-71
2022/09/02 05:57:22;;;;;;;1.92;1.10;;;19.60;59.80;;;;;;5053555;28;20127;-72
2022/09/02 05:59:54;;;;;;;3.30;1.20;;;19.70;59.80;;;;;;5054508;28;20073;-71
2022/09/02 06:02:21;;;;;;;1.20;0.82;;;19.80;59.70;;;;;;5052941;28;20052;-71
2022/09/02 06:04:49;;;;;;;1.20;1.00;;;19.90;59.70;;;;;;5053390;28;20048;-72
2022/09/02 06:07:16;;;;;;;2.47;1.02;;;20.10;59.70;;;;;;5053316;28;20127;-72
2022/09/02 06:09:43;;;;;;;1.77;1.20;;;20.20;59.60;;;;;;5052647;28;20071;-71
2022/09/02 06:12:10;;;;;;;2.17;1.00;;;20.30;59.50;;;;;;5053104;28;20441;-72
2022/09/02 06:14:40;;;;;;;1.27;0.90;;;20.40;59.40;;;;;;5052960;28;20056;-71
2022/09/02 06:17:07;;;;;;;0.77;0.77;;;20.40;59.30;;;;;;5052948;28;20403;-72
2022/09/02 06:19:34;;;;;;;1.35;0.85;;;20.50;59.20;;;;;;5054042;28;20132;-71
2022/09/02 06:22:01;;;;;;;1.38;0.90;;;20.60;59.10;;;;;;5053863;28;20045;-73
2022/09/02 06:24:28;;;;;;;2.85;0.90;;;20.70;59.10;;;;;;5054235;28;20059;-71
2022/09/02 06:26:55;;;;;;;2.10;1.00;;;20.70;59.00;;;;;;5052749;28;20514;-73
2022/09/02 06:29:22;;;;;;;2.15;0.90;;;20.80;59.00;;;;;;5052646;28;20049;-71
2022/09/02 06:31:50;;;;;;;1.75;0.90;;;20.90;59.10;;;;;;5052487;28;20053;-72
2022/09/02 06:34:18;;;;;;;2.15;1.13;;;20.90;58.90;;;;;;5052799;28;20076;-71
2022/09/02 06:36:46;;;;;;;4.15;1.33;;;21.00;58.90;;;;;;5053587;28;20052;-71
2022/09/02 06:39:14;;;;;;;3.63;0.90;;;21.10;58.90;;;;;;5052666;28;20056;-72
2022/09/02 06:41:41;;;;;;;1.45;1.05;;;21.10;58.80;;;;;;5052318;28;20053;-71
2022/09/02 06:44:08;;;;;;;4.63;1.10;;;21.10;58.80;;;;;;5052674;28;20454;-71
2022/09/02 06:46:36;;;;;;;2.85;1.27;;;21.20;58.90;;;;;;5053695;28;20079;-72
2022/09/02 06:49:06;;;;;;;2.25;1.02;;;21.30;58.90;;;;;;5051812;28;20127;-71
2022/09/02 06:51:33;;;;;;;4.57;1.45;;;21.30;58.80;;;;;;5052194;28;20049;-71
2022/09/02 06:54:00;;;;;;;1.92;1.20;;;21.40;58.80;;;;;;5052546;28;20057;-72
2022/09/02 06:56:27;;;;;;;1.90;0.98;;;21.40;58.70;;;;;;5053455;28;20045;-72
2022/09/02 06:58:54;;;;;;;1.45;0.95;;;21.50;58.60;;;;;;5052222;28;20049;-73
2022/09/02 07:01:20;;;;;;;3.40;1.00;;;21.60;58.60;;;;;;5050795;28;20565;-71
2022/09/02 07:06:36;;;;;;;3.45;0.98;;;21.70;58.30;;;;;;5049920;28;20041;-72
2022/09/02 07:09:03;;;;;;;3.88;1.10;;;21.70;58.20;;;;;;5052114;28;20057;-71
2022/09/02 07:11:30;;;;;;;2.95;0.85;;;21.70;58.10;;;;;;5051680;28;20141;-72
2022/09/02 07:13:59;;;;;;;1.23;0.88;;;21.70;58.00;;;;;;5053103;28;20398;-71
2022/09/02 07:16:25;;;;;;;5.40;1.10;;;21.70;58.00;;;;;;5051643;28;20456;-71
2022/09/02 07:18:52;;;;;;;1.92;1.00;;;21.60;57.90;;;;;;5051682;28;20171;-72
2022/09/02 07:21:19;;;;;;;5.78;1.42;;;21.60;57.90;;;;;;5052532;28;20136;-71
2022/09/02 07:23:47;;;;;;;6.35;1.23;;;21.60;57.80;;;;;;5051907;28;20063;-71
2022/09/02 07:26:14;;;;;;;3.85;1.30;;;21.50;57.70;;;;;;5052863;28;20124;-71
2022/09/02 07:28:42;;;;;;;3.17;1.05;;;21.50;57.80;;;;;;5051549;28;20490;-72
2022/09/02 07:31:09;;;;;;;2.60;1.30;;;21.40;57.70;;;;;;5052431;28;20048;-73
2022/09/02 07:33:36;;;;;;;2.58;1.20;;;21.40;57.70;;;;;;5051515;28;20494;-71
2022/09/02 07:36:03;;;;;;;2.42;1.10;;;21.30;57.70;;;;;;5051343;28;20049;-71
2022/09/02 07:38:30;;;;;;;1.90;1.05;;;21.30;57.70;;;;;;5051597;28;20057;-71
2022/09/02 07:40:59;;;;;;;3.42;1.33;;;21.20;57.80;;;;;;5050534;28;20049;-71
2022/09/02 07:43:26;;;;;;;2.50;1.27;;;21.10;57.60;;;;;;5051201;28;20064;-72
2022/09/02 07:45:55;;;;;;;2.60;1.40;;;21.10;57.70;;;;;;5051171;28;20053;-71
2022/09/02 07:48:21;;;;;;;5.72;1.30;;;21.10;57.80;;;;;;5051393;28;20076;-71
2022/09/02 07:50:48;;;;;;;3.75;1.27;;;21.00;57.80;;;;;;5051639;28;20051;-71
2022/09/02 07:53:15;;;;;;;4.25;1.10;;;21.00;57.80;;;;;;5051295;28;20156;-72
2022/09/02 07:55:42;;;;;;;1.40;1.02;;;21.10;58.10;;;;;;5050611;28;20057;-71
2022/09/02 07:58:10;;;;;;;1.60;1.10;;;20.70;60.00;;;;;;5051208;28;20059;-71
2022/09/02 08:00:37;;;;;;;1.77;0.90;;;21.10;58.30;;;;;;5050007;28;20056;-71
2022/09/02 08:03:05;;;;;;;2.67;1.10;;;21.20;58.30;;;;;;5051455;28;20152;-71
2022/09/02 08:05:32;;;;;;;2.95;0.95;;;21.30;58.30;;;;;;5051140;28;20047;-73
2022/09/02 08:07:59;;;;;;;2.30;1.10;;;21.40;58.40;;;;;;5051599;28;20520;-71
2022/09/02 08:10:28;;;;;;;5.30;1.20;;;21.40;58.30;;;;;;5050321;28;20121;-72
2022/09/02 08:12:55;;;;;;;2.50;1.10;;;21.50;58.30;;;;;;5050817;28;20508;-71
2022/09/02 08:15:23;;;;;;;1.83;1.00;;;21.60;58.30;;;;;;5050902;28;20383;-71
2022/09/02 08:17:49;;;;;;;6.00;1.80;;;21.50;61.40;;;;;;5050644;28;20061;-71
2022/09/02 08:20:17;;;;;;;2.63;1.20;;;21.70;58.50;;;;;;5050143;28;20037;-71
2022/09/02 08:22:43;;;;;;;3.38;1.20;;;21.80;58.30;;;;;;5050724;28;20052;-71
2022/09/02 08:25:10;;;;;;;4.85;1.05;;;21.80;58.20;;;;;;5051733;28;20497;-71
2022/09/02 08:27:37;;;;;;;4.90;1.20;;;21.90;58.30;;;;;;5050439;28;20074;-71
2022/09/02 08:30:04;;;;;;;1.55;1.00;;;21.90;61.10;;;;;;5050163;28;20049;-71
2022/09/02 08:32:32;;;;;;;4.03;1.08;;;22.00;58.40;;;;;;5050514;28;20064;-72
2022/09/02 08:35:01;;;;;;;3.05;1.00;;;22.10;58.50;;;;;;5050297;28;20577;-71
2022/09/02 08:37:28;;;;;;;1.00;0.90;;;22.20;58.50;;;;;;5050294;28;20107;-71
2022/09/02 08:39:55;;;;;;;2.03;1.13;;;22.20;58.50;;;;;;5050027;28;20044;-72
2022/09/02 08:42:23;;;;;;;2.13;1.10;;;22.20;58.50;;;;;;5050579;28;20481;-71
2022/09/02 08:44:50;;;;;;;2.90;1.20;;;22.20;58.70;;;;;;5050392;28;20498;-71
2022/09/02 08:47:19;;;;;;;4.18;1.20;;;22.30;58.60;;;;;;5051387;28;20053;-71
2022/09/02 08:49:48;;;;;;;2.60;1.10;;;22.40;58.60;;;;;;5050113;28;20063;-71
2022/09/02 08:52:17;;;;;;;6.15;1.40;;;22.40;58.60;;;;;;5051275;28;20055;-71
2022/09/02 08:54:45;;;;;;;3.03;1.30;;;22.50;58.60;;;;;;5051538;28;20049;-71
2022/09/02 08:57:12;;;;;;;4.05;1.10;;;22.50;58.50;;;;;;5050880;28;20041;-71
2022/09/02 08:59:39;;;;;;;3.35;1.05;;;22.50;58.40;;;;;;5050229;28;20055;-72
2022/09/02 09:02:08;;;;;;;2.78;1.42;;;22.40;58.30;;;;;;5049038;28;20048;-71
2022/09/02 09:04:45;;;;;;;3.53;1.17;;;22.40;58.80;;;;;;5047981;28;20118;-71
2022/09/02 09:07:18;;;;;;;2.92;1.20;;;22.50;58.20;;;;;;5050128;28;20500;-71
2022/09/02 09:10:15;;;;;;;2.90;1.15;;;22.30;58.10;;;;;;5050949;28;20498;-71
2022/09/02 09:12:58;;;;;;;1.65;1.00;;;22.30;58.00;;;;;;5036285;28;20063;-71
2022/09/02 09:15:31;;;;;;;2.08;1.20;;;22.20;57.90;;;;;;5053952;28;20056;-71
2022/09/02 09:17:59;;;;;;;1.73;1.15;;;22.20;57.90;;;;;;5054312;28;20057;-71
2022/09/02 09:20:27;;;;;;;2.55;1.00;;;22.10;57.80;;;;;;5054052;28;20055;-72
2022/09/02 09:22:57;;;;;;;1.33;1.00;;;22.10;57.80;;;;;;5055145;28;20051;-72
2022/09/02 09:25:28;;;;;;;2.20;1.17;;;22.10;57.80;;;;;;5053902;28;20087;-73
2022/09/02 09:27:55;;;;;;;4.40;1.50;;;22.10;57.80;;;;;;5054725;28;20509;-72
2022/09/02 09:30:22;;;;;;;1.95;1.20;;;22.00;57.70;;;;;;5053055;28;20596;-72
2022/09/02 09:32:50;;;;;;;4.85;1.33;;;22.00;57.70;;;;;;5053327;28;20055;-72
2022/09/02 09:35:17;;;;;;;3.85;1.20;;;22.00;57.70;;;;;;5054010;28;20079;-72
2022/09/02 09:37:46;;;;;;;2.05;1.23;;;22.00;57.70;;;;;;5053253;28;20057;-72
2022/09/02 09:40:29;;;;;;;2.17;1.10;;;22.00;57.70;;;;;;5054564;28;20124;-72
2022/09/02 09:42:57;;;;;;;3.97;1.40;;;20.70;58.90;;;;;;5053964;28;20060;-72
2022/09/02 09:45:31;;;;;;;2.80;1.27;;;22.00;57.80;;;;;;5054862;28;20137;-71
2022/09/02 09:48:18;;;;;;;1.95;1.10;;;21.90;57.70;;;;;;5053598;28;20052;-72
2022/09/02 09:50:45;;;;;;;1.70;1.15;;;21.90;57.60;;;;;;5054663;28;20448;-73
2022/09/02 09:53:16;;;;;;;1.90;1.00;;;21.90;57.70;;;;;;5053723;28;20135;-72
2022/09/02 09:55:57;;;;;;;4.00;1.17;;;21.90;57.70;;;;;;5054630;28;20045;-72
2022/09/02 09:58:30;;;;;;;1.92;1.30;;;21.90;57.70;;;;;;5054599;28;20132;-72
2022/09/02 10:00:59;;;;;;;1.67;1.20;;;21.90;57.70;;;;;;5052755;28;20057;-72
2022/09/02 10:03:27;;;;;;;2.58;1.30;;;21.90;57.80;;;;;;5053413;28;20114;-72
2022/09/02 10:05:54;;;;;;;5.00;1.10;;;22.00;58.60;;;;;;5053343;28;20063;-72
2022/09/02 10:08:23;;;;;;;3.33;1.10;;;22.00;57.90;;;;;;5053446;28;20057;-74
2022/09/02 10:10:59;;;;;;;3.28;1.10;;;22.00;57.90;;;;;;5052382;28;20167;-73
2022/09/02 10:13:28;;;;;;;2.28;1.20;;;22.00;57.80;;;;;;5049284;28;20127;-71
2022/09/02 10:16:02;;;;;;;3.03;1.40;;;22.00;57.80;;;;;;5052742;28;20409;-72
2022/09/02 10:18:31;;;;;;;2.20;1.20;;;22.20;57.80;;;;;;5053375;28;20132;-72
2022/09/02 10:21:01;;;;;;;3.13;1.38;;;22.10;57.80;;;;;;5051984;28;20051;-72
2022/09/02 10:23:36;;;;;;;2.50;1.20;;;22.10;57.70;;;;;;5053278;28;20409;-72
2022/09/02 10:26:10;;;;;;;3.13;1.50;;;22.20;59.80;;;;;;5053165;28;20048;-71
2022/09/02 10:29:02;;;;;;;2.25;1.33;;;22.10;57.60;;;;;;5054013;28;20076;-71
2022/09/02 10:31:31;;;;;;;7.30;1.20;;;22.10;57.60;;;;;;5046042;28;20071;-71
2022/09/02 10:34:05;;;;;;;1.75;1.20;;;22.10;57.50;;;;;;5052726;28;20131;-72
2022/09/02 10:36:35;;;;;;;2.88;1.52;;;22.10;57.40;;;;;;5052611;28;20053;-71
2022/09/02 10:39:06;;;;;;;2.03;1.20;;;22.10;57.40;;;;;;5053879;28;20513;-71
2022/09/02 10:41:44;;;;;;;2.47;1.13;;;22.10;57.40;;;;;;5053185;28;20052;-72
2022/09/02 10:44:31;;;;;;;3.22;1.30;;;22.10;57.30;;;;;;5052589;28;20079;-71
2022/09/02 10:47:02;;;;;;;2.25;1.10;;;22.10;57.30;;;;;;5050526;28;20053;-71
2022/09/02 10:49:51;;;;;;;2.97;1.10;;;22.10;57.40;;;;;;5053314;28;20457;-72
2022/09/02 10:52:39;;;;;;;3.00;1.20;;;22.10;57.40;;;;;;5051512;28;20140;-71
2022/09/02 10:55:10;;;;;;;1.30;1.08;;;22.10;57.40;;;;;;5048813;28;20557;-71
2022/09/02 10:57:42;;;;;;;3.53;1.10;;;22.10;57.30;;;;;;5050103;28;20063;-71
2022/09/02 11:00:12;;;;;;;2.17;1.20;;;22.10;57.30;;;;;;5051919;28;20570;-71
2022/09/02 11:02:41;;;;;;;1.48;1.00;;;22.10;57.20;;;;;;5053384;28;20079;-71
2022/09/02 11:05:11;;;;;;;2.35;1.17;;;22.20;57.30;;;;;;5052088;28;20144;-71
2022/09/02 11:07:42;;;;;;;1.60;1.10;;;22.20;57.20;;;;;;5051825;28;20061;-71
2022/09/02 11:10:10;;;;;;;2.38;1.00;;;22.20;57.20;;;;;;5052237;28;20067;-72
2022/09/02 11:12:40;;;;;;;4.43;1.50;;;22.20;57.10;;;;;;5051696;28;20127;-72
2022/09/02 11:15:10;;;;;;;1.98;1.20;;;22.20;56.90;;;;;;5052154;28;20063;-73
2022/09/02 11:17:38;;;;;;;3.80;1.20;;;22.20;56.90;;;;;;5052408;28;20049;-73
2022/09/02 11:20:09;;;;;;;1.67;1.20;;;22.20;56.90;;;;;;5052205;28;20053;-73
2022/09/02 11:22:39;;;;;;;2.65;1.30;;;22.40;57.00;;;;;;5051436;28;20077;-73
2022/09/02 11:25:08;;;;;;;2.35;1.23;;;22.20;56.80;;;;;;5051962;28;20394;-73
2022/09/02 11:27:37;;;;;;;2.45;1.23;;;22.20;56.80;;;;;;5051285;28;20052;-73
2022/09/02 11:30:07;;;;;;;3.30;1.30;;;22.20;56.90;;;;;;5052597;28;20055;-73
2022/09/02 11:32:37;;;;;;;2.42;1.10;;;22.20;56.80;;;;;;5050893;28;20055;-72
2022/09/02 11:35:07;;;;;;;2.42;1.13;;;22.20;56.90;;;;;;5051323;28;20063;-73
2022/09/02 11:37:37;;;;;;;2.60;1.20;;;22.20;56.80;;;;;;5051102;28;20071;-73
2022/09/02 11:40:05;;;;;;;2.08;1.15;;;22.40;56.90;;;;;;5034686;28;20049;-73
2022/09/02 11:42:40;;;;;;;3.08;1.30;;;22.20;56.80;;;;;;5051315;28;20056;-72
2022/09/02 11:45:28;;;;;;;2.50;1.20;;;22.20;56.80;;;;;;5051139;28;20063;-73
2022/09/02 11:48:28;;;;;;;2.78;1.83;;;22.20;56.80;;;;;;5051519;28;20048;-73
2022/09/02 11:51:22;;;;;;;2.65;1.40;;;22.30;56.80;;;;;;5051120;28;20405;-73
2022/09/02 11:53:49;;;;;;;4.63;1.65;;;22.20;56.80;;;;;;5051400;28;20494;-72
2022/09/02 11:56:17;;;;;;;2.95;1.20;;;22.30;56.90;;;;;;5050660;28;20505;-72
2022/09/02 11:58:45;;;;;;;1.95;1.30;;;22.30;56.80;;;;;;5051235;28;20053;-73
2022/09/02 12:01:30;;;;;;;3.13;1.30;;;22.30;56.80;;;;;;5050813;28;20051;-72
2022/09/02 12:03:59;;;;;;;2.13;1.42;;;22.30;56.80;;;;;;5052277;28;20440;-72
2022/09/02 12:06:26;;;;;;;3.58;1.33;;;22.30;56.80;;;;;;5050485;28;20379;-73
2022/09/02 12:09:02;;;;;;;2.25;1.27;;;22.30;56.80;;;;;;5052141;28;20060;-72
2022/09/02 12:11:52;;;;;;;2.35;1.25;;;22.30;56.70;;;;;;5050948;28;20498;-72
2022/09/02 12:15:03;;;;;;;2.10;1.27;;;21.60;56.40;;;;;;5061723;28;20049;-74
2022/09/02 12:17:39;;;;;;;3.83;1.20;;;22.30;56.70;;;;;;5049464;28;20140;-73
2022/09/02 12:20:07;;;;;;;1.83;1.35;;;22.30;56.70;;;;;;5050156;28;20059;-74
2022/09/02 12:22:37;;;;;;;3.80;1.73;;;22.30;56.70;;;;;;5050412;28;20045;-74
2022/09/02 12:25:23;;;;;;;1.52;1.00;;;22.30;56.70;;;;;;5045438;28;20071;-72
2022/09/02 12:27:50;;;;;;;3.60;1.15;;;22.30;56.60;;;;;;5030803;28;20132;-72
2022/09/02 12:30:55;;;;;;;1.50;1.20;;;22.30;56.70;;;;;;5043616;28;20383;-74
2022/09/02 12:33:30;;;;;;;1.95;1.38;;;22.30;56.80;;;;;;5049893;28;20053;-72
2022/09/02 12:35:57;;;;;;;1.70;1.40;;;22.30;56.70;;;;;;5049262;28;20053;-73
2022/09/02 12:38:29;;;;;;;1.38;1.17;;;22.30;56.80;;;;;;5050043;28;20501;-72
2022/09/02 12:41:11;;;;;;;3.03;1.23;;;22.30;56.70;;;;;;5050343;28;20087;-72
2022/09/02 12:43:46;;;;;;;2.53;1.20;;;22.30;56.70;;;;;;5039679;28;20073;-73
2022/09/02 12:46:17;;;;;;;;;;;22.30;56.60;;;;;;5050598;28;20136;-73
2022/09/02 12:48:48;;;;;;;1.60;1.00;;;22.30;56.80;;;;;;5054147;28;19928;-73
2022/09/02 12:51:34;;;;;;;1.48;1.10;;;22.20;56.80;;;;;;5054407;28;20476;-72
2022/09/02 12:54:01;;;;;;;1.45;1.10;;;22.20;56.70;;;;;;5054052;28;20477;-73
2022/09/02 12:56:28;;;;;;;2.05;1.10;;;22.20;56.70;;;;;;5054375;28;20140;-71
2022/09/02 12:58:55;;;;;;;2.58;1.08;;;22.30;56.70;;;;;;5055687;28;20051;-73
2022/09/02 13:01:29;;;;;;;1.70;1.00;;;22.30;56.60;;;;;;5054406;28;20132;-73
2022/09/02 13:04:12;;;;;;;2.03;1.13;;;22.30;56.60;;;;;;5054686;28;20059;-72
2022/09/02 13:07:18;;;;;;;3.60;1.10;;;22.30;56.60;;;;;;5054349;28;20147;-73
2022/09/02 13:10:02;;;;;;;2.60;1.30;;;22.30;56.60;;;;;;5007827;28;20056;-73
2022/09/02 13:12:54;;;;;;;2.08;1.00;;;22.30;56.70;;;;;;5054090;28;20084;-73
2022/09/02 13:15:32;;;;;;;2.05;1.10;;;22.30;56.70;;;;;;5054000;28;20052;-73
2022/09/02 13:18:19;;;;;;;1.50;1.20;;;22.20;56.60;;;;;;5054393;28;20056;-73
2022/09/02 13:21:06;;;;;;;2.45;1.05;;;22.20;56.50;;;;;;5054091;28;20136;-73
2022/09/02 13:23:56;;;;;;;2.08;1.25;;;22.20;56.60;;;;;;5052812;28;20056;-72
2022/09/02 13:26:36;;;;;;;1.45;1.00;;;22.30;56.60;;;;;;5053885;28;20063;-73
2022/09/02 13:29:25;;;;;;;2.25;1.42;;;22.30;56.60;;;;;;5054263;28;20072;-72
2022/09/02 13:31:59;;;;;;;1.92;1.00;;;22.20;56.50;;;;;;5053653;28;20508;-73
2022/09/02 13:34:26;;;;;;;1.27;0.90;;;22.20;56.60;;;;;;5073622;28;20056;-72
2022/09/02 13:36:54;;;;;;;2.35;1.17;;;22.20;56.70;;;;;;5074614;28;20128;-72
2022/09/02 13:39:24;;;;;;;1.48;1.17;;;22.20;56.60;;;;;;5055558;28;20071;-73
2022/09/02 13:41:50;;;;;;;2.95;1.35;;;22.20;56.60;;;;;;5034807;28;20417;-72
2022/09/02 13:44:21;;;;;;;3.22;1.17;;;22.30;56.70;;;;;;5040885;28;20055;-72
2022/09/02 13:46:48;;;;;;;1.45;1.00;;;22.30;56.80;;;;;;5042377;28;20056;-72
2022/09/02 13:49:34;;;;;;;2.78;1.40;;;22.30;56.80;;;;;;5053727;28;20057;-73
2022/09/02 13:52:04;;;;;;;4.68;1.40;;;22.30;57.00;;;;;;5053155;28;20081;-73
2022/09/02 13:54:33;;;;;;;3.25;1.48;;;22.30;57.70;;;;;;5053449;28;20060;-73
2022/09/02 13:57:01;;;;;;;2.28;1.42;;;22.30;57.20;;;;;;5053207;28;20056;-73
2022/09/02 13:59:32;;;;;;;2.72;1.20;;;22.30;57.10;;;;;;5052958;28;20063;-73
2022/09/02 14:01:59;;;;;;;4.80;1.52;;;22.30;57.00;;;;;;5052949;28;20045;-73
2022/09/02 14:04:25;;;;;;;3.58;1.25;;;22.30;57.00;;;;;;5053329;28;20057;-73